Time;durP1;ratioP1;P1;durP2;ratioP2;P2;SDS_P1;SDS_P2;PMS_P1;PMS_P2;Temp;Humidity;BMP_temperature;BMP_pressure;BME280_temperature;BME280_humidity;BME280_pressure;Samples;Min_cycle;Max_cycle;Signal;HPM_P1;HPM_P2
2022/11/02 00:01:20;;;;;;;29.17;27.10;;;13.20;99.90;;;;;;5092300;28;20378;-56
2022/11/02 00:03:47;;;;;;;29.05;27.13;;;13.20;99.90;;;;;;5090760;28;20396;-52
2022/11/02 00:06:12;;;;;;;26.25;24.35;;;13.20;99.90;;;;;;5089894;28;20386;-56
2022/11/02 00:08:38;;;;;;;27.00;25.05;;;13.20;99.90;;;;;;5089548;28;20378;-53
2022/11/02 00:11:03;;;;;;;29.77;27.67;;;13.20;99.90;;;;;;5088741;28;20400;-53
2022/11/02 00:13:29;;;;;;;29.45;26.98;;;13.20;99.90;;;;;;5089391;28;20405;-52
2022/11/02 00:15:55;;;;;;;30.73;28.57;;;13.20;99.90;;;;;;5090066;28;20558;-56
2022/11/02 00:18:21;;;;;;;25.52;23.52;;;13.30;99.90;;;;;;5091691;28;20410;-54
2022/11/02 00:20:46;;;;;;;28.70;26.58;;;13.20;99.90;;;;;;5091298;28;20413;-55
2022/11/02 00:23:13;;;;;;;26.87;24.47;;;13.30;99.90;;;;;;5091608;28;20525;-54
2022/11/02 00:25:43;;;;;;;28.13;26.03;;;13.30;99.90;;;;;;5092623;28;20404;-56
2022/11/02 00:28:09;;;;;;;26.15;24.27;;;13.20;99.90;;;;;;5092333;28;20397;-57
2022/11/02 00:30:36;;;;;;;25.63;23.47;;;13.30;99.90;;;;;;5092715;28;20455;-57
2022/11/02 00:33:01;;;;;;;28.40;26.27;;;13.20;99.90;;;;;;5092912;28;20394;-55
2022/11/02 00:35:27;;;;;;;23.77;22.20;;;13.20;99.90;;;;;;5093657;28;20408;-58
2022/11/02 00:37:52;;;;;;;28.17;26.25;;;13.20;99.90;;;;;;5095007;28;20393;-55
2022/11/02 00:40:18;;;;;;;24.07;22.43;;;13.20;99.90;;;;;;5094325;28;20389;-54
2022/11/02 00:42:43;;;;;;;28.13;25.77;;;13.20;99.90;;;;;;5093248;28;20681;-54
2022/11/02 00:45:09;;;;;;;27.08;25.13;;;13.20;99.90;;;;;;5090153;28;20418;-53
2022/11/02 00:47:35;;;;;;;26.40;24.53;;;13.20;99.90;;;;;;5091184;28;20405;-54
2022/11/02 00:50:00;;;;;;;25.67;23.73;;;13.10;99.90;;;;;;5091371;28;20522;-53
2022/11/02 00:52:26;;;;;;;28.17;26.33;;;13.10;99.90;;;;;;5090261;28;20659;-55
2022/11/02 00:54:52;;;;;;;27.47;25.27;;;13.10;99.90;;;;;;5090803;28;20511;-54
2022/11/02 00:57:18;;;;;;;23.53;21.77;;;13.10;99.90;;;;;;5091579;28;20456;-55
2022/11/02 00:59:43;;;;;;;24.17;22.47;;;13.10;99.90;;;;;;5091556;28;20378;-54
2022/11/02 01:02:09;;;;;;;26.60;24.73;;;13.10;99.90;;;;;;5092949;28;20647;-56
2022/11/02 01:04:35;;;;;;;24.40;22.50;;;13.10;99.90;;;;;;5092120;28;20462;-54
2022/11/02 01:07:02;;;;;;;22.73;20.98;;;13.00;99.90;;;;;;5091302;28;20390;-53
2022/11/02 01:09:28;;;;;;;28.75;26.75;;;13.00;99.90;;;;;;5091072;28;20487;-55
2022/11/02 01:11:54;;;;;;;27.63;25.70;;;13.00;99.90;;;;;;5090968;28;20489;-53
2022/11/02 01:14:21;;;;;;;24.45;22.67;;;13.00;99.90;;;;;;5093139;28;20496;-57
2022/11/02 01:16:47;;;;;;;24.60;22.58;;;12.90;99.90;;;;;;5093435;28;20394;-49
2022/11/02 01:19:13;;;;;;;26.10;23.77;;;13.00;99.90;;;;;;5092888;28;20391;-54
2022/11/02 01:21:39;;;;;;;24.75;22.70;;;13.00;99.90;;;;;;5091446;28;20378;-55
2022/11/02 01:24:06;;;;;;;24.90;22.83;;;13.00;99.90;;;;;;5091873;28;20812;-53
2022/11/02 01:26:32;;;;;;;25.95;23.92;;;12.90;99.90;;;;;;5091877;28;20568;-54
2022/11/02 01:28:57;;;;;;;25.33;23.15;;;12.90;99.90;;;;;;5091382;28;20575;-54
2022/11/02 01:31:23;;;;;;;21.92;20.08;;;12.90;99.90;;;;;;5089766;28;20378;-57
2022/11/02 01:33:48;;;;;;;28.07;26.07;;;12.90;99.90;;;;;;5090377;28;20418;-54
2022/11/02 01:36:19;;;;;;;26.10;23.90;;;12.90;99.90;;;;;;5091707;28;20398;-56
2022/11/02 01:38:45;;;;;;;24.10;22.13;;;12.90;99.90;;;;;;5093962;28;20666;-55
2022/11/02 01:41:12;;;;;;;23.70;21.67;;;12.80;99.90;;;;;;5093451;28;20374;-54
2022/11/02 01:43:41;;;;;;;25.38;23.48;;;12.80;99.90;;;;;;5092326;28;20562;-55
2022/11/02 01:46:10;;;;;;;25.50;23.42;;;12.80;99.90;;;;;;5094262;28;20388;-52
2022/11/02 01:48:57;;;;;;;26.90;24.63;;;12.80;99.90;;;;;;5094162;28;20386;-49
2022/11/02 01:51:37;;;;;;;26.30;23.98;;;12.80;99.90;;;;;;5091949;28;20385;-56
2022/11/02 01:54:20;;;;;;;22.77;20.80;;;12.80;99.90;;;;;;5091342;28;20817;-55
2022/11/02 01:56:50;;;;;;;26.67;24.63;;;12.80;99.90;;;;;;5090862;28;20714;-57
2022/11/02 01:59:22;;;;;;;27.38;25.08;;;12.80;99.90;;;;;;5090216;28;20409;-57
2022/11/02 02:01:48;;;;;;;26.58;24.35;;;12.80;99.90;;;;;;5089023;28;20565;-57
2022/11/02 02:04:14;;;;;;;27.45;25.33;;;12.80;99.90;;;;;;5090741;28;20386;-57
2022/11/02 02:06:41;;;;;;;21.40;19.65;;;12.70;99.90;;;;;;5088950;28;20473;-56
2022/11/02 02:09:08;;;;;;;23.65;21.65;;;12.70;99.90;;;;;;5088192;28;20390;-57
2022/11/02 02:11:36;;;;;;;23.52;21.60;;;12.70;99.90;;;;;;5090041;28;20382;-57
2022/11/02 02:14:16;;;;;;;26.17;24.35;;;12.70;99.90;;;;;;5088402;28;20825;-58
2022/11/02 02:16:51;;;;;;;21.40;19.80;;;12.70;99.90;;;;;;5089015;28;20692;-55
2022/11/02 02:19:54;;;;;;;21.73;19.88;;;12.70;99.90;;;;;;5088759;28;20382;-53
2022/11/02 02:22:35;;;;;;;25.58;23.50;;;12.70;99.90;;;;;;5090676;28;20413;-54
2022/11/02 02:25:20;;;;;;;23.67;21.50;;;12.70;99.90;;;;;;5090117;28;20433;-57
2022/11/02 02:27:54;;;;;;;21.67;20.03;;;12.70;99.90;;;;;;5090208;28;20393;-55
2022/11/02 02:30:19;;;;;;;24.30;22.40;;;12.70;99.90;;;;;;5090675;28;20394;-54
2022/11/02 02:33:00;;;;;;;24.67;22.67;;;12.70;99.90;;;;;;5091982;28;20831;-57
2022/11/02 02:35:35;;;;;;;26.08;24.30;;;12.70;99.90;;;;;;5090600;28;20374;-56
2022/11/02 02:38:05;;;;;;;28.45;26.35;;;12.80;99.90;;;;;;5093567;28;20382;-57
2022/11/02 02:40:38;;;;;;;26.15;23.98;;;12.70;99.90;;;;;;5094342;28;20375;-54
2022/11/02 02:43:09;;;;;;;24.95;22.95;;;12.70;99.90;;;;;;5094556;28;20414;-57
2022/11/02 02:45:54;;;;;;;26.67;24.48;;;12.70;99.90;;;;;;5091170;28;20378;-53
2022/11/02 02:48:22;;;;;;;21.08;19.00;;;12.70;99.90;;;;;;5093668;28;20468;-56
2022/11/02 02:50:54;;;;;;;22.15;20.65;;;12.70;99.90;;;;;;5094323;28;20374;-53
2022/11/02 02:53:23;;;;;;;23.20;21.23;;;12.70;99.90;;;;;;5092541;28;20394;-55
2022/11/02 02:55:50;;;;;;;24.17;21.88;;;12.70;99.90;;;;;;5090397;28;20697;-54
2022/11/02 02:58:29;;;;;;;24.63;22.63;;;12.60;99.90;;;;;;5091870;28;20800;-57
2022/11/02 03:00:57;;;;;;;19.20;17.60;;;12.60;99.90;;;;;;5091910;28;20451;-56
2022/11/02 03:03:25;;;;;;;21.67;19.67;;;12.60;99.90;;;;;;5092099;28;20390;-56
2022/11/02 03:06:01;;;;;;;18.80;17.10;;;12.60;99.90;;;;;;5093605;28;20397;-54
2022/11/02 03:08:27;;;;;;;19.67;17.90;;;12.60;99.90;;;;;;5092149;28;20514;-53
2022/11/02 03:11:07;;;;;;;18.75;16.80;;;12.60;99.90;;;;;;5091025;28;20398;-57
2022/11/02 03:13:59;;;;;;;21.35;19.50;;;12.60;99.90;;;;;;5091665;28;20516;-56
2022/11/02 03:17:00;;;;;;;19.38;17.55;;;12.60;99.90;;;;;;5090085;28;20426;-54
2022/11/02 03:19:57;;;;;;;20.15;18.35;;;12.60;99.90;;;;;;5067956;28;20533;-54
2022/11/02 03:22:37;;;;;;;22.77;20.73;;;12.60;99.90;;;;;;5085931;28;20390;-55
2022/11/02 03:25:26;;;;;;;19.10;17.40;;;12.60;99.90;;;;;;5090676;28;20604;-56
2022/11/02 03:28:06;;;;;;;22.65;20.45;;;12.50;99.90;;;;;;5084755;28;20389;-56
2022/11/02 03:30:41;;;;;;;19.60;17.73;;;12.50;99.90;;;;;;5092135;28;20420;-54
2022/11/02 03:33:15;;;;;;;23.15;21.00;;;12.50;99.90;;;;;;5095905;28;20680;-52
2022/11/02 03:36:09;;;;;;;18.40;15.70;;;12.50;99.90;;;;;;5096567;28;20378;-55
2022/11/02 03:39:00;;;;;;;15.30;13.80;;;12.50;99.90;;;;;;5098162;28;20736;-54
2022/11/02 03:41:28;;;;;;;13.90;12.82;;;12.50;99.90;;;;;;5097658;28;20370;-53
2022/11/02 03:44:00;;;;;;;17.90;16.02;;;12.50;99.90;;;;;;5098355;28;20390;-55
2022/11/02 03:46:27;;;;;;;16.73;15.07;;;12.60;99.90;;;;;;5097593;28;20427;-57
2022/11/02 03:48:54;;;;;;;21.27;19.20;;;12.60;99.90;;;;;;5097293;28;20396;-53
2022/11/02 03:51:22;;;;;;;23.70;21.77;;;12.60;99.90;;;;;;5096632;28;20395;-53
2022/11/02 03:53:57;;;;;;;19.35;17.65;;;12.60;99.90;;;;;;5096094;28;20408;-55
2022/11/02 03:56:31;;;;;;;21.50;19.40;;;12.60;99.90;;;;;;5095742;28;20402;-55
2022/11/02 03:58:57;;;;;;;18.70;16.98;;;12.50;99.90;;;;;;5094666;28;20758;-54
2022/11/02 04:01:25;;;;;;;19.05;17.33;;;12.50;99.90;;;;;;5094390;28;20477;-55
2022/11/02 04:04:15;;;;;;;16.35;14.82;;;12.50;99.90;;;;;;5098058;28;20383;-55
2022/11/02 04:06:43;;;;;;;16.02;14.50;;;12.40;99.90;;;;;;5094300;28;20591;-54
2022/11/02 04:09:09;;;;;;;19.15;17.52;;;12.40;99.90;;;;;;5096316;28;20378;-57
2022/11/02 04:14:37;;;;;;;14.93;12.30;;;12.40;99.90;;;;;;5097189;28;20474;-51
2022/11/02 04:19:56;;;;;;;18.30;16.73;;;12.50;99.90;;;;;;5094714;28;20385;-51
2022/11/02 04:25:17;;;;;;;23.93;21.83;;;12.50;99.90;;;;;;5093864;28;20461;-57
2022/11/02 04:27:45;;;;;;;22.25;20.33;;;12.40;99.90;;;;;;5092803;28;20390;-54
2022/11/02 04:30:11;;;;;;;19.63;17.67;;;12.40;99.90;;;;;;5092534;28;20460;-56
2022/11/02 04:35:23;;;;;;;22.67;20.33;;;12.40;99.90;;;;;;5092763;28;20489;-56
2022/11/02 04:40:32;;;;;;;18.70;17.13;;;12.40;99.90;;;;;;5095142;28;20440;-52
2022/11/02 04:42:58;;;;;;;20.23;18.63;;;12.50;99.90;;;;;;5093922;28;20397;-53
2022/11/02 04:45:24;;;;;;;25.90;23.98;;;12.50;99.90;;;;;;5093382;28;20827;-55
2022/11/02 04:47:49;;;;;;;23.17;21.17;;;12.50;99.90;;;;;;5093002;28;20396;-51
2022/11/02 04:50:16;;;;;;;21.90;20.00;;;12.40;99.90;;;;;;5094408;28;20392;-53
2022/11/02 04:52:41;;;;;;;21.10;18.30;;;12.40;99.90;;;;;;5092901;28;20373;-57
2022/11/02 04:55:07;;;;;;;20.93;19.07;;;12.40;99.90;;;;;;5093951;28;20414;-56
2022/11/02 04:57:33;;;;;;;24.65;22.67;;;12.30;99.90;;;;;;5093450;28;20651;-55
2022/11/02 04:59:58;;;;;;;19.00;17.13;;;12.30;99.90;;;;;;5092675;28;20386;-58
2022/11/02 05:02:24;;;;;;;21.53;19.87;;;12.30;99.90;;;;;;5092147;28;20474;-56
2022/11/02 05:04:49;;;;;;;17.33;15.63;;;12.30;99.90;;;;;;5095115;28;20850;-53
2022/11/02 05:07:15;;;;;;;19.37;15.60;;;12.30;99.90;;;;;;5094132;28;20476;-54
2022/11/02 05:09:43;;;;;;;19.63;17.67;;;12.20;99.90;;;;;;5093526;28;20386;-53
2022/11/02 05:12:09;;;;;;;17.35;15.48;;;12.20;99.90;;;;;;5092541;28;20496;-51
2022/11/02 05:14:34;;;;;;;16.60;14.27;;;12.20;99.90;;;;;;5091025;28;20506;-55
2022/11/02 05:17:00;;;;;;;14.68;13.18;;;12.20;99.90;;;;;;5088894;28;20417;-50
2022/11/02 05:19:25;;;;;;;18.95;16.20;;;12.20;99.90;;;;;;5086026;28;20418;-53
2022/11/02 05:21:51;;;;;;;17.13;14.13;;;12.20;99.90;;;;;;5085491;28;20378;-55
2022/11/02 05:24:16;;;;;;;13.63;12.23;;;12.20;99.90;;;;;;5084049;28;20606;-57
2022/11/02 05:26:42;;;;;;;15.95;13.73;;;12.20;99.90;;;;;;5083252;28;20475;-56
2022/11/02 05:29:08;;;;;;;17.80;15.67;;;12.20;99.90;;;;;;5086654;28;20405;-56
2022/11/02 05:31:33;;;;;;;17.05;15.20;;;12.30;99.90;;;;;;5086245;28;20488;-52
2022/11/02 05:33:59;;;;;;;18.88;14.60;;;12.30;99.90;;;;;;5088281;28;20480;-56
2022/11/02 05:36:25;;;;;;;17.97;16.27;;;12.20;99.90;;;;;;5089180;28;20673;-53
2022/11/02 05:38:54;;;;;;;21.27;19.13;;;12.30;99.90;;;;;;5088131;28;20447;-57
2022/11/02 05:41:21;;;;;;;18.30;16.70;;;12.30;99.90;;;;;;5088450;28;20400;-53
2022/11/02 05:43:46;;;;;;;19.50;17.73;;;12.30;99.90;;;;;;5088407;28;20824;-57
2022/11/02 05:46:13;;;;;;;18.87;17.33;;;12.30;99.90;;;;;;5090284;28;20378;-55
2022/11/02 05:48:39;;;;;;;17.10;14.07;;;12.30;99.90;;;;;;5087837;28;20382;-57
2022/11/02 05:51:05;;;;;;;14.90;13.40;;;12.20;99.90;;;;;;5085754;28;20393;-55
2022/11/02 05:53:32;;;;;;;15.77;13.80;;;12.20;99.90;;;;;;5084014;28;20408;-56
2022/11/02 05:55:59;;;;;;;17.92;16.02;;;12.20;99.90;;;;;;5082845;28;20385;-55
2022/11/02 05:58:26;;;;;;;15.80;13.23;;;12.10;99.90;;;;;;5084350;28;20503;-56
2022/11/02 06:00:52;;;;;;;12.57;10.07;;;12.10;99.90;;;;;;5080377;28;20412;-57
2022/11/02 06:03:17;;;;;;;15.85;12.70;;;12.10;99.90;;;;;;5083282;28;20948;-53
2022/11/02 06:05:43;;;;;;;15.33;13.57;;;12.10;99.90;;;;;;5082220;28;20443;-54
2022/11/02 06:08:09;;;;;;;16.45;14.18;;;12.10;99.90;;;;;;5082722;28;20508;-55
2022/11/02 06:10:35;;;;;;;16.17;12.07;;;12.00;99.90;;;;;;5080783;28;20512;-54
2022/11/02 06:13:02;;;;;;;15.13;12.05;;;12.00;99.90;;;;;;5079961;28;20398;-56
2022/11/02 06:15:29;;;;;;;11.95;10.80;;;12.00;99.90;;;;;;5081887;28;20412;-56
2022/11/02 06:17:55;;;;;;;15.98;10.80;;;12.00;99.90;;;;;;5084199;28;20660;-57
2022/11/02 06:20:20;;;;;;;16.08;11.90;;;12.00;99.90;;;;;;5085369;28;20483;-54
2022/11/02 06:22:46;;;;;;;18.98;13.75;;;12.00;99.90;;;;;;5086904;28;20384;-53
2022/11/02 06:25:13;;;;;;;14.57;12.88;;;12.10;99.90;;;;;;5086179;28;20454;-54
2022/11/02 06:27:40;;;;;;;13.20;11.45;;;12.10;99.90;;;;;;5086213;28;20394;-53
2022/11/02 06:30:06;;;;;;;15.05;11.02;;;12.10;99.90;;;;;;5086108;28;20416;-55
2022/11/02 06:32:32;;;;;;;15.13;13.65;;;12.20;99.90;;;;;;5083927;28;20474;-57
2022/11/02 06:34:58;;;;;;;13.48;11.52;;;12.20;99.90;;;;;;5081722;28;20723;-55
2022/11/02 06:37:23;;;;;;;15.80;10.80;;;12.20;99.90;;;;;;5081094;28;20449;-54
2022/11/02 06:39:49;;;;;;;11.27;7.57;;;12.10;99.90;;;;;;5082076;28;20653;-55
2022/11/02 06:42:14;;;;;;;15.47;12.77;;;12.20;99.90;;;;;;5080394;28;20398;-56
2022/11/02 06:44:40;;;;;;;13.35;10.73;;;12.20;99.90;;;;;;5079164;28;20390;-54
2022/11/02 06:47:08;;;;;;;15.30;10.97;;;12.20;99.90;;;;;;5077924;28;20440;-55
2022/11/02 06:49:34;;;;;;;13.48;11.40;;;12.20;99.90;;;;;;5072795;28;20394;-57
2022/11/02 06:51:59;;;;;;;11.40;10.20;;;12.20;99.90;;;;;;5071786;28;20394;-55
2022/11/02 06:54:25;;;;;;;14.33;10.90;;;12.20;99.90;;;;;;5069355;28;20876;-53
2022/11/02 06:56:51;;;;;;;15.68;13.82;;;12.20;99.90;;;;;;5071626;28;20839;-55
2022/11/02 06:59:16;;;;;;;14.60;12.10;;;12.20;99.90;;;;;;5073714;28;20394;-55
2022/11/02 07:01:42;;;;;;;13.90;12.60;;;12.30;99.90;;;;;;5073305;28;20645;-55
2022/11/02 07:04:08;;;;;;;14.50;13.15;;;12.30;99.90;;;;;;5075227;28;20385;-56
2022/11/02 07:06:33;;;;;;;13.90;11.33;;;12.30;99.90;;;;;;5075650;28;20517;-56
2022/11/02 07:08:59;;;;;;;13.27;11.87;;;12.30;99.90;;;;;;5075319;28;20642;-54
2022/11/02 07:11:24;;;;;;;19.07;14.60;;;12.30;99.90;;;;;;5072080;28;20436;-55
2022/11/02 07:13:50;;;;;;;18.23;16.40;;;12.30;99.90;;;;;;5068276;28;20497;-57
2022/11/02 07:16:15;;;;;;;19.00;17.48;;;12.40;99.90;;;;;;5067253;28;20377;-55
2022/11/02 07:18:41;;;;;;;19.15;17.27;;;12.30;99.90;;;;;;5067715;28;20386;-56
2022/11/02 07:21:09;;;;;;;15.60;13.83;;;12.30;99.90;;;;;;5068432;28;20691;-53
2022/11/02 07:23:35;;;;;;;17.20;15.35;;;12.30;99.90;;;;;;5068917;28;20436;-53
2022/11/02 07:26:01;;;;;;;17.42;15.73;;;12.40;99.90;;;;;;5068064;28;20797;-56
2022/11/02 07:28:26;;;;;;;14.98;13.57;;;12.40;99.90;;;;;;5071544;28;20390;-57
2022/11/02 07:30:55;;;;;;;15.95;14.10;;;12.30;99.90;;;;;;5068264;28;20475;-53
2022/11/02 07:33:20;;;;;;;16.83;15.05;;;12.40;99.90;;;;;;5068439;28;20668;-54
2022/11/02 07:35:46;;;;;;;20.65;18.67;;;12.50;99.90;;;;;;5067729;28;20874;-57
2022/11/02 07:38:12;;;;;;;21.70;19.77;;;12.50;99.90;;;;;;5068807;28;20452;-54
2022/11/02 07:40:37;;;;;;;22.05;19.90;;;12.50;99.90;;;;;;5072603;28;20681;-56
2022/11/02 07:43:04;;;;;;;22.88;20.58;;;12.60;99.90;;;;;;5072315;28;20869;-53
2022/11/02 07:45:30;;;;;;;21.67;19.70;;;12.60;99.90;;;;;;5069626;28;20393;-51
2022/11/02 07:47:55;;;;;;;26.00;23.87;;;12.60;99.90;;;;;;5072753;28;20771;-53
2022/11/02 07:50:23;;;;;;;25.07;23.00;;;12.60;99.90;;;;;;5073822;28;20481;-52
2022/11/02 07:52:50;;;;;;;21.90;20.00;;;12.60;99.90;;;;;;5076615;28;20929;-54
2022/11/02 07:55:18;;;;;;;20.88;18.95;;;12.60;99.90;;;;;;5074301;28;20907;-53
2022/11/02 07:57:52;;;;;;;21.15;19.15;;;12.60;99.90;;;;;;5068438;28;20928;-55
2022/11/02 08:00:18;;;;;;;19.98;18.17;;;12.60;99.90;;;;;;5067812;28;20978;-51
2022/11/02 08:02:43;;;;;;;25.80;23.67;;;12.60;99.90;;;;;;5066277;28;20367;-54
2022/11/02 08:05:09;;;;;;;20.83;18.80;;;12.70;99.90;;;;;;5067704;28;20382;-56
2022/11/02 08:07:34;;;;;;;22.30;20.30;;;12.70;99.90;;;;;;5069455;28;20389;-54
2022/11/02 08:10:00;;;;;;;23.93;22.10;;;12.70;99.90;;;;;;5072647;28;20386;-55
2022/11/02 08:12:29;;;;;;;21.40;19.50;;;12.80;99.90;;;;;;5075250;28;20717;-55
2022/11/02 08:15:11;;;;;;;23.40;21.48;;;12.80;99.90;;;;;;5077215;28;20641;-53
2022/11/02 08:17:43;;;;;;;27.92;25.77;;;12.90;99.90;;;;;;5078498;28;20382;-53
2022/11/02 08:20:09;;;;;;;24.52;22.73;;;12.90;99.90;;;;;;5081627;28;20386;-55
2022/11/02 08:22:50;;;;;;;24.50;22.40;;;13.00;99.90;;;;;;5080406;28;20390;-54
2022/11/02 08:25:16;;;;;;;30.47;28.23;;;13.00;99.90;;;;;;5080148;28;20386;-53
2022/11/02 08:27:41;;;;;;;32.43;30.23;;;13.00;99.90;;;;;;5077084;28;20382;-57
2022/11/02 08:30:07;;;;;;;32.08;29.60;;;13.00;99.90;;;;;;5070336;28;21016;-56
2022/11/02 08:32:33;;;;;;;31.30;29.15;;;13.00;99.90;;;;;;5077496;28;20395;-56
2022/11/02 08:34:58;;;;;;;32.17;29.77;;;13.10;99.90;;;;;;5078927;28;20566;-54
2022/11/02 08:37:24;;;;;;;34.47;31.97;;;13.10;99.90;;;;;;5075971;28;20990;-56
2022/11/02 08:40:08;;;;;;;32.42;30.10;;;13.10;99.90;;;;;;5076914;28;20386;-58
2022/11/02 08:43:21;;;;;;;38.97;36.10;;;13.10;99.90;;;;;;5079723;28;20539;-58
2022/11/02 08:46:27;;;;;;;32.85;30.35;;;13.10;99.90;;;;;;5084129;28;20362;-57
2022/11/02 08:49:05;;;;;;;34.85;31.77;;;13.10;99.90;;;;;;5081080;28;20462;-56
2022/11/02 08:51:30;;;;;;;33.33;30.67;;;13.20;99.90;;;;;;5082180;28;20379;-51
2022/11/02 08:53:56;;;;;;;37.93;35.27;;;13.30;99.90;;;;;;5082463;28;20398;-55
2022/11/02 08:56:21;;;;;;;40.50;37.70;;;13.40;99.90;;;;;;5084403;28;21053;-56
2022/11/02 08:58:50;;;;;;;38.80;35.90;;;13.60;99.90;;;;;;5082422;28;20477;-54
2022/11/02 09:01:16;;;;;;;40.63;37.50;;;13.60;99.90;;;;;;5078042;28;20378;-56
2022/11/02 09:03:41;;;;;;;37.70;35.08;;;13.60;99.90;;;;;;5081100;28;20390;-53
2022/11/02 09:06:07;;;;;;;42.45;39.35;;;13.60;99.90;;;;;;5080960;28;20934;-51
2022/11/02 09:08:32;;;;;;;44.47;41.27;;;13.70;99.90;;;;;;5081227;28;20390;-55
2022/11/02 09:11:00;;;;;;;50.20;46.70;;;13.90;99.90;;;;;;5082373;28;20395;-54
2022/11/02 09:13:26;;;;;;;51.42;48.20;;;14.20;99.90;;;;;;5081963;28;20503;-51
2022/11/02 09:15:54;;;;;;;51.67;48.45;;;14.00;99.90;;;;;;5083548;28;20614;-57
2022/11/02 09:18:20;;;;;;;66.75;62.20;;;13.90;99.90;;;;;;5084897;28;20383;-58
2022/11/02 09:20:47;;;;;;;47.95;44.72;;;13.70;99.90;;;;;;5085402;28;20908;-58
2022/11/02 09:23:16;;;;;;;44.53;41.75;;;13.60;99.90;;;;;;5085660;28;20797;-54
2022/11/02 09:25:42;;;;;;;50.25;47.15;;;13.50;99.90;;;;;;5083920;28;20455;-58
2022/11/02 09:28:14;;;;;;;42.17;39.53;;;13.60;99.90;;;;;;5079440;28;20375;-54
2022/11/02 09:30:40;;;;;;;43.03;40.03;;;13.60;99.90;;;;;;5079848;28;20425;-58
2022/11/02 09:33:06;;;;;;;65.25;60.75;;;13.60;99.90;;;;;;5077796;28;20686;-55
2022/11/02 09:35:34;;;;;;;40.65;37.85;;;13.60;99.90;;;;;;5079836;28;20832;-55
2022/11/02 09:38:00;;;;;;;41.38;38.28;;;13.50;99.90;;;;;;5080339;28;20388;-55
2022/11/02 09:40:35;;;;;;;49.25;46.08;;;13.60;99.90;;;;;;5079314;28;20378;-58
2022/11/02 09:43:38;;;;;;;46.30;43.30;;;13.60;99.90;;;;;;5078676;28;20378;-55
2022/11/02 09:46:15;;;;;;;34.50;31.90;;;13.50;99.90;;;;;;5076892;28;20385;-58
2022/11/02 09:48:44;;;;;;;41.67;38.33;;;13.50;99.90;;;;;;5082359;28;20735;-56
2022/11/02 09:51:47;;;;;;;56.47;52.90;;;13.60;99.90;;;;;;5079414;28;20439;-56
2022/11/02 09:54:19;;;;;;;39.95;37.20;;;13.50;99.90;;;;;;5074946;28;21132;-56
2022/11/02 09:56:45;;;;;;;54.77;51.50;;;13.50;99.90;;;;;;5079688;28;20402;-56
2022/11/02 09:59:20;;;;;;;46.30;43.17;;;13.50;99.90;;;;;;5082368;28;20379;-52
2022/11/02 10:01:48;;;;;;;47.25;43.90;;;13.60;99.90;;;;;;5084044;28;20378;-54
2022/11/02 10:04:47;;;;;;;54.30;50.72;;;13.60;99.90;;;;;;5084171;28;21032;-54
2022/11/02 10:07:37;;;;;;;46.05;42.95;;;13.60;99.90;;;;;;5082926;28;20378;-56
2022/11/02 10:10:26;;;;;;;54.35;50.95;;;13.60;99.90;;;;;;5080116;28;20389;-56
2022/11/02 10:13:13;;;;;;;44.20;41.10;;;13.50;99.90;;;;;;5078934;28;20490;-53
2022/11/02 10:15:44;;;;;;;44.92;41.90;;;13.50;99.90;;;;;;5080807;28;20413;-56
2022/11/02 10:18:18;;;;;;;37.42;34.75;;;13.50;99.90;;;;;;5080535;28;21006;-53
2022/11/02 10:20:45;;;;;;;25.45;23.52;;;13.40;99.90;;;;;;5082837;28;20370;-56
2022/11/02 10:23:29;;;;;;;23.27;21.02;;;13.30;99.90;;;;;;5085613;28;20468;-55
2022/11/02 10:25:54;;;;;;;18.73;16.92;;;13.10;99.90;;;;;;5086227;28;20396;-53
2022/11/02 10:28:31;;;;;;;14.35;13.02;;;12.90;99.90;;;;;;5085564;28;20438;-55
2022/11/02 10:30:57;;;;;;;14.98;13.48;;;12.70;99.90;;;;;;5085674;28;20388;-56
2022/11/02 10:33:28;;;;;;;12.20;11.10;;;12.60;99.90;;;;;;5084328;28;21068;-56
2022/11/02 10:36:25;;;;;;;14.43;12.68;;;12.60;99.90;;;;;;5082752;28;20408;-54
2022/11/02 10:39:01;;;;;;;16.30;14.52;;;12.60;99.90;;;;;;5083382;28;20375;-57
2022/11/02 10:41:55;;;;;;;15.80;12.63;;;12.80;99.90;;;;;;5082770;28;20404;-56
2022/11/02 10:44:31;;;;;;;13.17;11.93;;;12.90;99.90;;;;;;5084452;28;20481;-56
2022/11/02 10:47:15;;;;;;;18.73;17.10;;;13.10;99.90;;;;;;5086066;28;20789;-56
2022/11/02 10:49:55;;;;;;;22.73;20.92;;;13.30;99.90;;;;;;5083570;28;20402;-55
2022/11/02 10:52:21;;;;;;;25.95;24.17;;;13.40;99.90;;;;;;5086017;28;20374;-55
2022/11/02 10:54:56;;;;;;;25.85;24.13;;;13.60;99.90;;;;;;5085519;28;20401;-56
2022/11/02 10:57:24;;;;;;;24.83;22.80;;;13.70;99.90;;;;;;5084575;28;20681;-55
2022/11/02 11:00:21;;;;;;;23.65;21.88;;;13.60;99.90;;;;;;5083731;28;21069;-56
2022/11/02 11:03:16;;;;;;;30.30;27.98;;;13.50;99.90;;;;;;5083040;28;20377;-54
2022/11/02 11:05:59;;;;;;;35.42;32.83;;;13.50;99.90;;;;;;5080243;28;20390;-55
2022/11/02 11:08:43;;;;;;;31.08;28.77;;;13.30;99.90;;;;;;5079281;28;20414;-56
2022/11/02 11:11:29;;;;;;;25.95;24.15;;;13.20;99.90;;;;;;5082260;28;20401;-54
2022/11/02 11:13:59;;;;;;;22.98;21.20;;;13.20;99.90;;;;;;5083682;28;20405;-55
2022/11/02 11:16:41;;;;;;;33.03;30.70;;;13.30;99.90;;;;;;5083191;28;20981;-56
2022/11/02 11:19:21;;;;;;;23.40;21.40;;;13.30;99.90;;;;;;5083044;28;20370;-54
2022/11/02 11:21:50;;;;;;;26.10;24.13;;;13.30;99.90;;;;;;5086097;28;20975;-54
2022/11/02 11:24:25;;;;;;;23.23;21.38;;;13.50;99.90;;;;;;5087040;28;20756;-57
2022/11/02 11:27:11;;;;;;;24.70;22.80;;;13.60;99.90;;;;;;5086168;28;20394;-55
2022/11/02 11:29:39;;;;;;;24.90;22.98;;;13.50;99.90;;;;;;5081711;28;20777;-55
2022/11/02 11:32:14;;;;;;;25.00;23.20;;;13.50;99.90;;;;;;5081619;28;20394;-53
2022/11/02 11:34:40;;;;;;;27.60;25.90;;;13.60;99.90;;;;;;5079304;28;20476;-56
2022/11/02 11:37:09;;;;;;;29.10;27.10;;;13.60;99.90;;;;;;5078726;28;20463;-54
2022/11/02 11:39:36;;;;;;;25.50;23.35;;;13.60;99.90;;;;;;5081805;28;20393;-57
2022/11/02 11:42:04;;;;;;;28.23;26.23;;;13.60;99.90;;;;;;5078781;28;20812;-56
2022/11/02 11:44:30;;;;;;;24.77;22.95;;;13.50;99.90;;;;;;5079486;28;20377;-54
2022/11/02 11:46:57;;;;;;;24.35;22.55;;;13.60;99.90;;;;;;5079631;28;20393;-55
2022/11/02 11:49:34;;;;;;;29.40;27.48;;;13.70;99.90;;;;;;5075047;28;21276;-56
2022/11/02 11:52:01;;;;;;;36.97;34.55;;;13.80;99.90;;;;;;5073981;28;20473;-55
2022/11/02 11:54:31;;;;;;;40.75;37.95;;;13.80;99.90;;;;;;5076162;28;20429;-54
2022/11/02 11:57:15;;;;;;;29.80;27.95;;;13.80;99.90;;;;;;5076992;28;20393;-54
2022/11/02 11:59:50;;;;;;;32.75;30.60;;;13.60;99.90;;;;;;5075068;28;20386;-55
2022/11/02 12:02:25;;;;;;;33.83;31.73;;;13.50;99.90;;;;;;5077084;28;20377;-57
2022/11/02 12:04:56;;;;;;;29.70;27.80;;;13.40;99.90;;;;;;5079601;28;20532;-56
2022/11/02 12:07:55;;;;;;;22.40;20.90;;;13.30;99.90;;;;;;5085306;28;20458;-57
2022/11/02 12:10:36;;;;;;;19.83;18.57;;;13.10;99.90;;;;;;5078378;28;20477;-53
2022/11/02 12:13:17;;;;;;;20.17;18.88;;;12.90;99.90;;;;;;5085224;28;20404;-56
2022/11/02 12:16:09;;;;;;;19.30;18.08;;;12.70;99.90;;;;;;5080970;28;20408;-52
2022/11/02 12:18:43;;;;;;;16.23;15.02;;;12.70;99.90;;;;;;5072097;28;20374;-56
2022/11/02 12:21:37;;;;;;;19.55;17.92;;;12.70;99.90;;;;;;5074378;28;20861;-56
2022/11/02 12:24:14;;;;;;;16.67;15.52;;;12.70;99.90;;;;;;5075335;28;20374;-53
2022/11/02 12:27:00;;;;;;;17.53;16.13;;;12.60;99.90;;;;;;5069292;28;20414;-56
2022/11/02 12:29:37;;;;;;;19.92;18.45;;;12.60;99.90;;;;;;5069497;28;20466;-53
2022/11/02 12:32:20;;;;;;;22.77;21.30;;;12.90;99.90;;;;;;5073479;28;20641;-55
2022/11/02 12:35:24;;;;;;;23.90;22.27;;;13.00;99.90;;;;;;5071641;28;20444;-55
2022/11/02 12:38:28;;;;;;;24.50;22.77;;;13.10;99.90;;;;;;5073094;28;20435;-55
2022/11/02 12:41:07;;;;;;;29.83;27.83;;;13.60;99.90;;;;;;5056284;28;20410;-55
2022/11/02 12:43:47;;;;;;;34.37;32.27;;;14.10;99.90;;;;;;5078694;28;20386;-54
2022/11/02 12:46:45;;;;;;;41.25;38.78;;;14.40;99.90;;;;;;5080602;28;20818;-55
2022/11/02 12:49:33;;;;;;;41.70;39.03;;;14.60;99.90;;;;;;5081251;28;20382;-55
2022/11/02 12:52:21;;;;;;;55.78;52.58;;;14.90;99.90;;;;;;5079033;28;20370;-58
2022/11/02 12:54:50;;;;;;;55.30;52.22;;;15.10;99.90;;;;;;5077502;28;20919;-56
2022/11/02 12:57:22;;;;;;;58.95;55.72;;;15.20;99.90;;;;;;5078253;28;20807;-57
2022/11/02 12:59:53;;;;;;;59.55;56.33;;;15.20;99.90;;;;;;5077229;28;20650;-57
2022/11/02 13:02:28;;;;;;;66.20;62.63;;;15.40;99.90;;;;;;5079989;28;20770;-55
2022/11/02 13:04:59;;;;;;;62.55;59.17;;;15.60;99.90;;;;;;5077389;28;20378;-55